sensor_id;sensor_type;location;lat;lon;timestamp;pressure;altitude;pressure_sealevel;temperature;humidity
18850;BME280;4989;48.772;9.154;2023-01-29T00:01:46;99094.13;;;5.79;94.61
18850;BME280;4989;48.772;9.154;2023-01-29T00:06:49;99099.53;;;5.79;88.88
18850;BME280;4989;48.772;9.154;2023-01-29T00:11:52;99093.97;;;5.45;99.60
18850;BME280;4989;48.772;9.154;2023-01-29T00:16:54;99103.25;;;5.48;89.46
18850;BME280;4989;48.772;9.154;2023-01-29T00:21:57;99097.56;;;5.30;90.46
18850;BME280;4989;48.772;9.154;2023-01-29T00:27:00;99092.94;;;5.54;95.78
18850;BME280;4989;48.772;9.154;2023-01-29T00:32:02;99103.44;;;5.59;91.39
18850;BME280;4989;48.772;9.154;2023-01-29T00:37:05;99096.34;;;5.50;94.72
18850;BME280;4989;48.772;9.154;2023-01-29T00:42:10;99084.06;;;5.53;90.56
18850;BME280;4989;48.772;9.154;2023-01-29T00:47:31;99084.72;;;5.46;92.35
18850;BME280;4989;48.772;9.154;2023-01-29T00:52:37;99092.34;;;5.41;89.05
18850;BME280;4989;48.772;9.154;2023-01-29T00:57:39;99084.63;;;5.39;90.72
18850;BME280;4989;48.772;9.154;2023-01-29T01:02:42;99089.34;;;5.46;94.11
18850;BME280;4989;48.772;9.154;2023-01-29T01:08:04;99093.09;;;5.41;100.00
18850;BME280;4989;48.772;9.154;2023-01-29T01:13:26;99087.66;;;5.38;95.96
18850;BME280;4989;48.772;9.154;2023-01-29T01:18:30;99093.78;;;5.58;93.88
18850;BME280;4989;48.772;9.154;2023-01-29T01:23:32;99087.97;;;5.56;96.10
18850;BME280;4989;48.772;9.154;2023-01-29T01:28:35;99083.28;;;5.53;98.80
18850;BME280;4989;48.772;9.154;2023-01-29T01:33:38;99082.31;;;5.41;99.99
18850;BME280;4989;48.772;9.154;2023-01-29T01:38:40;99087.59;;;5.34;90.20
18850;BME280;4989;48.772;9.154;2023-01-29T01:43:56;99090.69;;;5.33;95.32
18850;BME280;4989;48.772;9.154;2023-01-29T01:49:13;99076.72;;;5.27;90.62
18850;BME280;4989;48.772;9.154;2023-01-29T01:54:27;99082.66;;;5.36;92.40
18850;BME280;4989;48.772;9.154;2023-01-29T01:59:32;99076.81;;;5.34;92.79
18850;BME280;4989;48.772;9.154;2023-01-29T02:04:35;99076.81;;;5.34;90.72
18850;BME280;4989;48.772;9.154;2023-01-29T02:10:10;99070.47;;;5.23;92.32
18850;BME280;4989;48.772;9.154;2023-01-29T02:15:14;99082.66;;;5.17;92.29
18850;BME280;4989;48.772;9.154;2023-01-29T02:20:24;99093.66;;;5.50;100.00
18850;BME280;4989;48.772;9.154;2023-01-29T02:36:08;99085.91;;;5.03;97.88
18850;BME280;4989;48.772;9.154;2023-01-29T02:41:27;99082.72;;;5.63;100.00
18850;BME280;4989;48.772;9.154;2023-01-29T02:46:47;99078.81;;;5.60;94.49
18850;BME280;4989;48.772;9.154;2023-01-29T02:57:29;99078.31;;;4.89;94.92
18850;BME280;4989;48.772;9.154;2023-01-29T03:02:56;99076.44;;;5.13;94.33
18850;BME280;4989;48.772;9.154;2023-01-29T03:08:09;99070.97;;;4.67;89.79
18850;BME280;4989;48.772;9.154;2023-01-29T03:18:22;99074.72;;;4.62;93.77
18850;BME280;4989;48.772;9.154;2023-01-29T03:23:34;99077.59;;;4.53;87.04
18850;BME280;4989;48.772;9.154;2023-01-29T03:28:57;99071.03;;;3.64;84.28
18850;BME280;4989;48.772;9.154;2023-01-29T03:34:22;99081.03;;;3.48;88.62
18850;BME280;4989;48.772;9.154;2023-01-29T03:39:30;99079.03;;;3.61;98.21
18850;BME280;4989;48.772;9.154;2023-01-29T03:45:05;99077.38;;;3.25;86.71
18850;BME280;4989;48.772;9.154;2023-01-29T03:55:47;99082.16;;;2.47;94.97
18850;BME280;4989;48.772;9.154;2023-01-29T04:01:10;99075.38;;;2.93;100.00
18850;BME280;4989;48.772;9.154;2023-01-29T04:06:19;99082.81;;;2.84;100.00
18850;BME280;4989;48.772;9.154;2023-01-29T04:11:40;99084.53;;;3.84;100.00
18850;BME280;4989;48.772;9.154;2023-01-29T04:16:49;99081.84;;;4.00;94.57
18850;BME280;4989;48.772;9.154;2023-01-29T04:22:05;99081.63;;;3.57;88.19
18850;BME280;4989;48.772;9.154;2023-01-29T04:27:20;99087.41;;;3.91;100.00
18850;BME280;4989;48.772;9.154;2023-01-29T04:32:52;99085.72;;;4.73;100.00
18850;BME280;4989;48.772;9.154;2023-01-29T04:38:07;99089.88;;;4.90;100.00
18850;BME280;4989;48.772;9.154;2023-01-29T04:43:25;99083.56;;;4.43;90.73
18850;BME280;4989;48.772;9.154;2023-01-29T04:59:01;99084.06;;;4.13;100.00
18850;BME280;4989;48.772;9.154;2023-01-29T05:04:13;99084.44;;;4.12;91.92
18850;BME280;4989;48.772;9.154;2023-01-29T05:09:18;99084.94;;;3.66;100.00
18850;BME280;4989;48.772;9.154;2023-01-29T05:14:22;99095.41;;;3.56;89.77
18850;BME280;4989;48.772;9.154;2023-01-29T05:19:26;99082.66;;;3.68;99.15
18850;BME280;4989;48.772;9.154;2023-01-29T05:24:29;99087.34;;;3.40;95.76
18850;BME280;4989;48.772;9.154;2023-01-29T05:29:31;99094.41;;;3.16;100.00
18850;BME280;4989;48.772;9.154;2023-01-29T05:34:34;99098.78;;;3.68;97.35
18850;BME280;4989;48.772;9.154;2023-01-29T05:39:36;99094.88;;;3.66;87.24
18850;BME280;4989;48.772;9.154;2023-01-29T05:44:39;99080.25;;;3.63;100.00
18850;BME280;4989;48.772;9.154;2023-01-29T05:49:42;99084.38;;;3.77;93.62
18850;BME280;4989;48.772;9.154;2023-01-29T05:54:44;99067.25;;;2.21;91.13
18850;BME280;4989;48.772;9.154;2023-01-29T05:59:47;99042.22;;;2.17;100.00
18850;BME280;4989;48.772;9.154;2023-01-29T06:04:50;99038.97;;;2.36;100.00
18850;BME280;4989;48.772;9.154;2023-01-29T06:09:54;99058.63;;;2.68;100.00
18850;BME280;4989;48.772;9.154;2023-01-29T06:14:56;99059.94;;;3.50;99.11
18850;BME280;4989;48.772;9.154;2023-01-29T06:19:59;99065.84;;;3.40;100.00
18850;BME280;4989;48.772;9.154;2023-01-29T06:25:01;99061.75;;;3.94;99.63
18850;BME280;4989;48.772;9.154;2023-01-29T06:30:05;99067.28;;;4.01;89.09
18850;BME280;4989;48.772;9.154;2023-01-29T06:35:08;99065.25;;;4.13;93.04
18850;BME280;4989;48.772;9.154;2023-01-29T06:40:12;99073.94;;;4.42;100.00
18850;BME280;4989;48.772;9.154;2023-01-29T06:45:14;99080.13;;;3.28;85.00
18850;BME280;4989;48.772;9.154;2023-01-29T06:50:17;99082.22;;;3.35;99.13
18850;BME280;4989;48.772;9.154;2023-01-29T06:55:19;99071.56;;;3.22;100.00
18850;BME280;4989;48.772;9.154;2023-01-29T07:00:22;99086.75;;;1.94;93.66
18850;BME280;4989;48.772;9.154;2023-01-29T07:05:25;99092.06;;;1.81;100.00
18850;BME280;4989;48.772;9.154;2023-01-29T07:10:27;99091.72;;;2.60;100.00
18850;BME280;4989;48.772;9.154;2023-01-29T07:15:30;99084.66;;;2.68;95.00
18850;BME280;4989;48.772;9.154;2023-01-29T07:20:33;99089.59;;;3.38;100.00
18850;BME280;4989;48.772;9.154;2023-01-29T07:25:35;99093.44;;;2.81;100.00
18850;BME280;4989;48.772;9.154;2023-01-29T07:30:38;99091.50;;;3.53;100.00
18850;BME280;4989;48.772;9.154;2023-01-29T07:35:42;99104.06;;;2.49;93.01
18850;BME280;4989;48.772;9.154;2023-01-29T07:40:44;99114.00;;;3.17;100.00
18850;BME280;4989;48.772;9.154;2023-01-29T07:45:47;99117.00;;;3.91;100.00
18850;BME280;4989;48.772;9.154;2023-01-29T07:50:56;99119.34;;;3.61;100.00
18850;BME280;4989;48.772;9.154;2023-01-29T07:55:59;99120.88;;;4.09;98.44
18850;BME280;4989;48.772;9.154;2023-01-29T08:01:08;99125.22;;;4.69;100.00
18850;BME280;4989;48.772;9.154;2023-01-29T08:06:10;99120.25;;;4.16;87.14
18850;BME280;4989;48.772;9.154;2023-01-29T08:11:13;99119.34;;;3.61;87.67
18850;BME280;4989;48.772;9.154;2023-01-29T08:16:16;99119.91;;;3.38;100.00
18850;BME280;4989;48.772;9.154;2023-01-29T08:21:19;99124.84;;;2.64;94.28
18850;BME280;4989;48.772;9.154;2023-01-29T08:26:21;99125.31;;;2.42;100.00
18850;BME280;4989;48.772;9.154;2023-01-29T08:31:24;99142.31;;;3.58;100.00
18850;BME280;4989;48.772;9.154;2023-01-29T08:36:26;99137.19;;;4.01;97.48
18850;BME280;4989;48.772;9.154;2023-01-29T08:41:29;99134.81;;;4.31;96.96
18850;BME280;4989;48.772;9.154;2023-01-29T08:46:32;99146.63;;;4.62;99.53
18850;BME280;4989;48.772;9.154;2023-01-29T08:51:34;99144.38;;;4.83;88.69
18850;BME280;4989;48.772;9.154;2023-01-29T08:56:37;99149.13;;;4.70;96.28
18850;BME280;4989;48.772;9.154;2023-01-29T09:01:39;99141.69;;;5.02;90.01
18850;BME280;4989;48.772;9.154;2023-01-29T09:06:42;99140.69;;;4.91;89.54
18850;BME280;4989;48.772;9.154;2023-01-29T09:11:44;99143.25;;;5.03;87.39
18850;BME280;4989;48.772;9.154;2023-01-29T09:16:47;99156.31;;;5.44;94.16
18850;BME280;4989;48.772;9.154;2023-01-29T09:21:49;99150.16;;;5.43;83.45
18850;BME280;4989;48.772;9.154;2023-01-29T09:26:52;99148.72;;;4.33;87.88
18850;BME280;4989;48.772;9.154;2023-01-29T09:31:54;99160.59;;;4.67;93.29
18850;BME280;4989;48.772;9.154;2023-01-29T09:36:57;99164.22;;;5.14;97.53
18850;BME280;4989;48.772;9.154;2023-01-29T09:47:37;99148.06;;;5.33;85.84
18850;BME280;4989;48.772;9.154;2023-01-29T09:52:49;99136.66;;;5.63;88.44
18850;BME280;4989;48.772;9.154;2023-01-29T09:57:59;99123.47;;;5.38;73.11
18850;BME280;4989;48.772;9.154;2023-01-29T10:03:23;99109.19;;;4.37;73.98
18850;BME280;4989;48.772;9.154;2023-01-29T10:09:07;99081.88;;;3.68;77.64
18850;BME280;4989;48.772;9.154;2023-01-29T10:19:44;99080.41;;;5.19;76.23
18850;BME280;4989;48.772;9.154;2023-01-29T10:24:56;99082.00;;;4.42;73.66
18850;BME280;4989;48.772;9.154;2023-01-29T10:30:01;99088.94;;;4.63;76.15
18850;BME280;4989;48.772;9.154;2023-01-29T10:35:23;99088.22;;;5.24;71.57
18850;BME280;4989;48.772;9.154;2023-01-29T10:40:42;99084.09;;;5.11;70.63
18850;BME280;4989;48.772;9.154;2023-01-29T10:56:25;99082.25;;;4.18;75.81
18850;BME280;4989;48.772;9.154;2023-01-29T11:01:30;99080.81;;;4.59;74.58
18850;BME280;4989;48.772;9.154;2023-01-29T11:06:35;99082.09;;;5.27;85.50
18850;BME280;4989;48.772;9.154;2023-01-29T11:12:02;99090.41;;;5.87;71.61
18850;BME280;4989;48.772;9.154;2023-01-29T11:17:14;99085.94;;;5.72;79.05
18850;BME280;4989;48.772;9.154;2023-01-29T11:22:23;99075.84;;;6.45;79.84
18850;BME280;4989;48.772;9.154;2023-01-29T11:27:26;99067.00;;;7.19;73.69
18850;BME280;4989;48.772;9.154;2023-01-29T11:32:34;99060.56;;;7.34;73.16
18850;BME280;4989;48.772;9.154;2023-01-29T11:37:39;99044.03;;;6.65;72.24
18850;BME280;4989;48.772;9.154;2023-01-29T11:42:42;99046.91;;;6.79;75.43
18850;BME280;4989;48.772;9.154;2023-01-29T11:47:48;99026.56;;;6.93;80.28
18850;BME280;4989;48.772;9.154;2023-01-29T11:52:51;99036.25;;;6.94;89.69
18850;BME280;4989;48.772;9.154;2023-01-29T11:58:12;99038.56;;;7.32;73.74
18850;BME280;4989;48.772;9.154;2023-01-29T12:03:30;99030.97;;;7.49;71.84
18850;BME280;4989;48.772;9.154;2023-01-29T12:08:37;99014.91;;;6.81;70.39
18850;BME280;4989;48.772;9.154;2023-01-29T12:13:41;98996.38;;;6.83;90.54
18850;BME280;4989;48.772;9.154;2023-01-29T12:19:12;98981.09;;;7.02;69.89
18850;BME280;4989;48.772;9.154;2023-01-29T12:24:32;98972.22;;;7.49;64.61
18850;BME280;4989;48.772;9.154;2023-01-29T12:34:47;98945.69;;;7.66;60.67
18850;BME280;4989;48.772;9.154;2023-01-29T12:39:51;98918.72;;;7.21;62.33
18850;BME280;4989;48.772;9.154;2023-01-29T12:44:57;98925.94;;;7.65;61.17
18850;BME280;4989;48.772;9.154;2023-01-29T12:50:27;98913.59;;;8.77;58.29
18850;BME280;4989;48.772;9.154;2023-01-29T13:00:37;98906.59;;;10.49;53.16
18850;BME280;4989;48.772;9.154;2023-01-29T13:10:53;98904.28;;;6.55;62.73
18850;BME280;4989;48.772;9.154;2023-01-29T13:15:57;98884.69;;;7.17;61.45
18850;BME280;4989;48.772;9.154;2023-01-29T13:21:03;98883.59;;;6.32;64.53
18850;BME280;4989;48.772;9.154;2023-01-29T13:26:06;98879.63;;;7.08;69.95
18850;BME280;4989;48.772;9.154;2023-01-29T13:36:28;98879.44;;;6.86;64.20
18850;BME280;4989;48.772;9.154;2023-01-29T13:41:40;98876.38;;;6.84;67.73
18850;BME280;4989;48.772;9.154;2023-01-29T13:46:52;98876.47;;;6.99;71.77
18850;BME280;4989;48.772;9.154;2023-01-29T13:51:56;98891.69;;;6.73;69.93
18850;BME280;4989;48.772;9.154;2023-01-29T13:57:00;98893.19;;;7.11;67.27
18850;BME280;4989;48.772;9.154;2023-01-29T14:02:16;98893.47;;;6.55;63.67
18850;BME280;4989;48.772;9.154;2023-01-29T14:12:46;98889.59;;;6.52;63.44
18850;BME280;4989;48.772;9.154;2023-01-29T14:18:13;98882.84;;;5.68;66.40
18850;BME280;4989;48.772;9.154;2023-01-29T14:28:28;98889.25;;;5.60;66.64
18850;BME280;4989;48.772;9.154;2023-01-29T14:33:39;98877.78;;;5.63;68.08
18850;BME280;4989;48.772;9.154;2023-01-29T14:38:47;98872.41;;;6.30;85.79
18850;BME280;4989;48.772;9.154;2023-01-29T14:54:53;98882.84;;;4.88;68.91
18850;BME280;4989;48.772;9.154;2023-01-29T15:00:02;98873.00;;;4.73;69.22
18850;BME280;4989;48.772;9.154;2023-01-29T15:05:20;98872.72;;;4.35;70.87
18850;BME280;4989;48.772;9.154;2023-01-29T15:10:35;98870.69;;;4.29;71.47
18850;BME280;4989;48.772;9.154;2023-01-29T15:16:09;98878.28;;;4.92;74.96
18850;BME280;4989;48.772;9.154;2023-01-29T15:21:17;98882.97;;;5.48;78.89
18850;BME280;4989;48.772;9.154;2023-01-29T15:26:23;98876.84;;;4.98;71.55
18850;BME280;4989;48.772;9.154;2023-01-29T15:31:28;98875.09;;;4.60;73.09
18850;BME280;4989;48.772;9.154;2023-01-29T15:36:31;98865.97;;;4.91;72.20
18850;BME280;4989;48.772;9.154;2023-01-29T15:41:34;98865.69;;;4.96;81.31
18850;BME280;4989;48.772;9.154;2023-01-29T15:46:38;98868.03;;;5.55;79.81
18850;BME280;4989;48.772;9.154;2023-01-29T15:51:42;98878.91;;;5.62;77.61
18850;BME280;4989;48.772;9.154;2023-01-29T15:56:48;98877.47;;;5.41;85.85
18850;BME280;4989;48.772;9.154;2023-01-29T16:01:52;98880.63;;;5.47;87.95
18850;BME280;4989;48.772;9.154;2023-01-29T16:06:55;98876.91;;;5.55;90.54
18850;BME280;4989;48.772;9.154;2023-01-29T16:11:59;98872.50;;;5.17;72.90
18850;BME280;4989;48.772;9.154;2023-01-29T16:17:22;98861.84;;;4.97;84.08
18850;BME280;4989;48.772;9.154;2023-01-29T16:22:29;98867.75;;;5.07;94.61
18850;BME280;4989;48.772;9.154;2023-01-29T16:27:34;98864.91;;;5.53;90.77
18850;BME280;4989;48.772;9.154;2023-01-29T16:32:39;98860.75;;;5.59;84.72
18850;BME280;4989;48.772;9.154;2023-01-29T16:37:45;98865.88;;;5.11;77.50
18850;BME280;4989;48.772;9.154;2023-01-29T16:42:49;98878.31;;;5.45;100.00
18850;BME280;4989;48.772;9.154;2023-01-29T16:48:01;98881.91;;;5.57;89.68
18850;BME280;4989;48.772;9.154;2023-01-29T16:53:23;98885.34;;;5.54;86.11
18850;BME280;4989;48.772;9.154;2023-01-29T16:58:28;98883.44;;;4.78;81.91
18850;BME280;4989;48.772;9.154;2023-01-29T17:03:33;98888.97;;;4.39;80.49
18850;BME280;4989;48.772;9.154;2023-01-29T17:08:36;98891.72;;;4.43;81.24
18850;BME280;4989;48.772;9.154;2023-01-29T17:13:41;98898.19;;;5.11;93.62
18850;BME280;4989;48.772;9.154;2023-01-29T17:18:45;98896.97;;;4.58;79.19
18850;BME280;4989;48.772;9.154;2023-01-29T17:23:47;98897.22;;;3.88;78.13
18850;BME280;4989;48.772;9.154;2023-01-29T17:28:51;98889.13;;;3.49;79.59
18850;BME280;4989;48.772;9.154;2023-01-29T17:33:55;98880.69;;;3.51;89.76
18850;BME280;4989;48.772;9.154;2023-01-29T17:38:57;98878.06;;;4.32;100.00
18850;BME280;4989;48.772;9.154;2023-01-29T17:44:02;98871.31;;;4.88;100.00
18850;BME280;4989;48.772;9.154;2023-01-29T17:54:16;98886.09;;;5.24;90.76
18850;BME280;4989;48.772;9.154;2023-01-29T17:59:21;98871.31;;;5.14;85.97
18850;BME280;4989;48.772;9.154;2023-01-29T18:04:24;98880.19;;;5.15;96.48
18850;BME280;4989;48.772;9.154;2023-01-29T18:09:28;98873.34;;;5.21;100.00
18850;BME280;4989;48.772;9.154;2023-01-29T18:14:31;98867.84;;;5.40;100.00
18850;BME280;4989;48.772;9.154;2023-01-29T18:19:33;98872.81;;;5.38;93.32
18850;BME280;4989;48.772;9.154;2023-01-29T18:24:36;98871.22;;;5.07;99.56
18850;BME280;4989;48.772;9.154;2023-01-29T18:29:39;98873.50;;;5.32;96.38
18850;BME280;4989;48.772;9.154;2023-01-29T18:34:41;98862.25;;;4.99;88.98
18850;BME280;4989;48.772;9.154;2023-01-29T18:39:44;98868.53;;;4.57;96.13
18850;BME280;4989;48.772;9.154;2023-01-29T18:44:47;98858.81;;;4.30;84.28
18850;BME280;4989;48.772;9.154;2023-01-29T18:49:50;98861.41;;;4.03;90.79
18850;BME280;4989;48.772;9.154;2023-01-29T18:54:53;98864.09;;;4.03;84.94
18850;BME280;4989;48.772;9.154;2023-01-29T18:59:56;98859.09;;;4.25;89.48
18850;BME280;4989;48.772;9.154;2023-01-29T19:04:58;98862.59;;;4.48;85.65
18850;BME280;4989;48.772;9.154;2023-01-29T19:10:02;98879.75;;;4.86;87.30
18850;BME280;4989;48.772;9.154;2023-01-29T19:15:09;98879.94;;;4.51;82.49
18850;BME280;4989;48.772;9.154;2023-01-29T19:20:12;98881.34;;;3.83;96.19
18850;BME280;4989;48.772;9.154;2023-01-29T19:25:15;98889.56;;;3.71;89.14
18850;BME280;4989;48.772;9.154;2023-01-29T19:30:19;98882.88;;;3.10;88.41
18850;BME280;4989;48.772;9.154;2023-01-29T19:35:22;98880.72;;;3.35;100.00
18850;BME280;4989;48.772;9.154;2023-01-29T19:40:24;98898.69;;;4.24;100.00
18850;BME280;4989;48.772;9.154;2023-01-29T19:45:27;98891.47;;;4.51;100.00
18850;BME280;4989;48.772;9.154;2023-01-29T19:50:56;98878.63;;;4.64;100.00
18850;BME280;4989;48.772;9.154;2023-01-29T19:56:01;98891.97;;;3.95;100.00
18850;BME280;4989;48.772;9.154;2023-01-29T20:01:06;98893.31;;;4.05;100.00
18850;BME280;4989;48.772;9.154;2023-01-29T20:06:31;98881.72;;;4.43;100.00
18850;BME280;4989;48.772;9.154;2023-01-29T20:11:33;98890.25;;;4.26;100.00
18850;BME280;4989;48.772;9.154;2023-01-29T20:16:36;98884.75;;;3.99;85.59
18850;BME280;4989;48.772;9.154;2023-01-29T20:21:39;98883.41;;;2.84;91.39
18850;BME280;4989;48.772;9.154;2023-01-29T20:26:46;98883.66;;;3.10;100.00
18850;BME280;4989;48.772;9.154;2023-01-29T20:31:49;98872.56;;;3.12;96.70
18850;BME280;4989;48.772;9.154;2023-01-29T20:36:51;98871.81;;;2.80;99.99
18850;BME280;4989;48.772;9.154;2023-01-29T20:41:54;98864.94;;;3.49;100.00
18850;BME280;4989;48.772;9.154;2023-01-29T20:46:58;98854.38;;;3.99;98.93
18850;BME280;4989;48.772;9.154;2023-01-29T20:52:03;98839.97;;;3.13;88.76
18850;BME280;4989;48.772;9.154;2023-01-29T20:57:07;98829.19;;;3.29;100.00
18850;BME280;4989;48.772;9.154;2023-01-29T21:02:10;98818.50;;;4.10;100.00
18850;BME280;4989;48.772;9.154;2023-01-29T21:07:12;98802.56;;;3.79;88.91
18850;BME280;4989;48.772;9.154;2023-01-29T21:12:15;98802.34;;;2.94;85.27
18850;BME280;4989;48.772;9.154;2023-01-29T21:17:17;98803.53;;;2.61;98.32
18850;BME280;4989;48.772;9.154;2023-01-29T21:22:20;98808.63;;;2.66;100.00
18850;BME280;4989;48.772;9.154;2023-01-29T21:27:24;98807.56;;;3.41;100.00
18850;BME280;4989;48.772;9.154;2023-01-29T21:32:27;98817.56;;;3.60;100.00
18850;BME280;4989;48.772;9.154;2023-01-29T21:37:29;98817.25;;;3.85;97.78
18850;BME280;4989;48.772;9.154;2023-01-29T21:42:33;98826.38;;;4.23;95.82
18850;BME280;4989;48.772;9.154;2023-01-29T21:47:55;98825.81;;;4.33;93.33
18850;BME280;4989;48.772;9.154;2023-01-29T21:52:58;98817.75;;;4.33;94.19
18850;BME280;4989;48.772;9.154;2023-01-29T21:58:00;98812.66;;;4.28;92.87
18850;BME280;4989;48.772;9.154;2023-01-29T22:03:03;98807.38;;;4.35;99.19
18850;BME280;4989;48.772;9.154;2023-01-29T22:08:07;98815.50;;;4.16;86.72
18850;BME280;4989;48.772;9.154;2023-01-29T22:13:11;98814.78;;;4.19;100.00
18850;BME280;4989;48.772;9.154;2023-01-29T22:18:14;98816.09;;;4.05;89.84
18850;BME280;4989;48.772;9.154;2023-01-29T22:23:16;98819.91;;;4.04;94.59
18850;BME280;4989;48.772;9.154;2023-01-29T22:28:19;98814.91;;;4.26;100.00
18850;BME280;4989;48.772;9.154;2023-01-29T22:33:21;98811.94;;;3.88;89.70
18850;BME280;4989;48.772;9.154;2023-01-29T22:38:24;98801.38;;;3.99;100.00
18850;BME280;4989;48.772;9.154;2023-01-29T22:43:26;98799.94;;;4.05;95.79
18850;BME280;4989;48.772;9.154;2023-01-29T22:48:30;98784.09;;;3.38;81.83
18850;BME280;4989;48.772;9.154;2023-01-29T22:53:34;98769.50;;;2.02;84.97
18850;BME280;4989;48.772;9.154;2023-01-29T22:58:39;98751.56;;;1.58;88.68
18850;BME280;4989;48.772;9.154;2023-01-29T23:03:42;98732.38;;;1.28;90.33
18850;BME280;4989;48.772;9.154;2023-01-29T23:08:45;98721.28;;;1.14;91.62
18850;BME280;4989;48.772;9.154;2023-01-29T23:13:49;98708.56;;;1.39;90.73
18850;BME280;4989;48.772;9.154;2023-01-29T23:18:56;98712.88;;;0.87;92.59
18850;BME280;4989;48.772;9.154;2023-01-29T23:23:59;98720.94;;;0.63;94.79
18850;BME280;4989;48.772;9.154;2023-01-29T23:29:02;98702.78;;;0.56;95.15
18850;BME280;4989;48.772;9.154;2023-01-29T23:34:05;98704.13;;;0.62;95.32
18850;BME280;4989;48.772;9.154;2023-01-29T23:39:09;98694.84;;;0.72;94.55
18850;BME280;4989;48.772;9.154;2023-01-29T23:44:12;98705.09;;;0.82;97.49
18850;BME280;4989;48.772;9.154;2023-01-29T23:49:15;98693.31;;;1.55;100.00
18850;BME280;4989;48.772;9.154;2023-01-29T23:54:18;98675.44;;;1.75;94.46
18850;BME280;4989;48.772;9.154;2023-01-29T23:59:20;98678.22;;;1.19;92.75
